createdAt,value
2017-03-11T00:00:53.769Z,1011.44
2017-03-11T00:01:53.808Z,1011.43
2017-03-11T00:02:53.832Z,1011.56
2017-03-11T00:03:53.893Z,1011.52
2017-03-11T00:04:53.898Z,1011.51
2017-03-11T00:05:53.960Z,1011.53
2017-03-11T00:06:53.966Z,1011.56
2017-03-11T00:07:54.012Z,1011.6
2017-03-11T00:08:54.028Z,1011.6
2017-03-11T00:09:54.063Z,1011.61
2017-03-11T00:10:54.094Z,1011.6
2017-03-11T00:11:54.127Z,1011.59
2017-03-11T00:12:54.160Z,1011.61
2017-03-11T00:13:54.212Z,1011.59
2017-03-11T00:14:54.227Z,1011.6
2017-03-11T00:15:54.272Z,1011.62
2017-03-11T00:16:54.291Z,1011.6
2017-03-11T00:17:54.324Z,1011.59
2017-03-11T00:18:54.357Z,1011.57
2017-03-11T00:19:54.387Z,1011.57
2017-03-11T00:20:54.419Z,1011.57
2017-03-11T00:21:54.452Z,1011.56
2017-03-11T00:22:54.496Z,1011.58
2017-03-11T00:23:54.524Z,1011.58
2017-03-11T00:24:54.553Z,1011.6
2017-03-11T00:25:54.585Z,1011.58
2017-03-11T00:26:54.618Z,1011.59
2017-03-11T00:27:54.648Z,1011.56
2017-03-11T00:28:54.702Z,1011.55
2017-03-11T00:29:54.713Z,1011.53
2017-03-11T00:30:54.747Z,1011.59
2017-03-11T00:31:54.780Z,1011.58
2017-03-11T00:32:54.810Z,1011.57
2017-03-11T00:33:54.846Z,1011.58
2017-03-11T00:34:54.876Z,1011.57
2017-03-11T00:35:54.927Z,1011.55
2017-03-11T00:36:54.943Z,1011.53
2017-03-11T00:37:55.000Z,1011.58
2017-03-11T00:38:55.008Z,1011.58
2017-03-11T00:39:55.064Z,1011.57
2017-03-11T00:40:55.073Z,1011.57
2017-03-11T00:41:55.122Z,1011.57
2017-03-11T00:42:55.136Z,1011.57
2017-03-11T00:43:55.169Z,1011.53
2017-03-11T00:44:55.204Z,1011.54
2017-03-11T00:45:55.236Z,1011.53
2017-03-11T00:46:55.266Z,1011.57
2017-03-11T00:47:55.302Z,1011.52
2017-03-11T00:48:55.333Z,1011.55
2017-03-11T00:49:55.383Z,1011.53
2017-03-11T00:50:55.397Z,1011.53
2017-03-11T00:51:55.432Z,1011.5
2017-03-11T00:52:55.463Z,1011.49
2017-03-11T00:53:55.497Z,1011.5
2017-03-11T00:54:55.528Z,1011.49
2017-03-11T00:55:55.583Z,1011.49
2017-03-11T00:56:55.594Z,1011.47
2017-03-11T00:57:55.647Z,1011.5
2017-03-11T00:58:55.658Z,1011.45
2017-03-11T00:59:55.712Z,1011.44
2017-03-11T01:00:55.723Z,1011.42
2017-03-11T01:01:55.776Z,1011.41
2017-03-11T01:02:55.800Z,1011.41
2017-03-11T01:03:55.829Z,1011.44
2017-03-11T01:04:55.854Z,1011.45
2017-03-11T01:05:55.907Z,1011.44
2017-03-11T01:06:55.920Z,1011.42
2017-03-11T01:07:55.962Z,1011.42
2017-03-11T01:08:55.985Z,1011.39
2017-03-11T01:09:56.016Z,1011.38
2017-03-11T01:10:56.049Z,1011.35
2017-03-11T01:11:56.105Z,1011.37
2017-03-11T01:12:56.114Z,1011.34
2017-03-11T01:13:56.154Z,1011.38
2017-03-11T01:14:56.180Z,1011.38
2017-03-11T01:15:56.228Z,1011.33
2017-03-11T01:16:56.243Z,1011.35
2017-03-11T01:17:56.299Z,1011.38
2017-03-11T01:18:56.311Z,1011.36
2017-03-11T01:19:56.364Z,1011.37
2017-03-11T01:20:56.376Z,1011.35
2017-03-11T01:21:56.419Z,1011.4
2017-03-11T01:22:56.440Z,1011.35
2017-03-11T01:23:56.471Z,1011.37
2017-03-11T01:24:56.505Z,1011.4
2017-03-11T01:25:56.558Z,1011.36
2017-03-11T01:26:56.571Z,1011.36
2017-03-11T01:27:56.603Z,1011.33
2017-03-11T01:28:56.633Z,1011.32
2017-03-11T01:29:56.669Z,1011.31
2017-03-11T01:30:56.701Z,1011.32
2017-03-11T01:31:56.734Z,1011.34
2017-03-11T01:32:56.761Z,1011.31
2017-03-11T01:33:56.818Z,1011.3
2017-03-11T01:34:56.831Z,1011.29
2017-03-11T01:35:56.869Z,1011.26
2017-03-11T01:36:56.892Z,1011.21
2017-03-11T01:37:56.954Z,1011.27
2017-03-11T01:38:56.960Z,1011.21
2017-03-11T01:39:57.013Z,1011.28
2017-03-11T01:40:57.024Z,1011.26
2017-03-11T01:41:57.056Z,1011.27
2017-03-11T01:42:57.088Z,1011.29
2017-03-11T01:43:57.121Z,1011.34
2017-03-11T01:44:57.152Z,1011.29
2017-03-11T01:45:57.185Z,1011.32
2017-03-11T01:46:57.232Z,1011.26
2017-03-11T01:47:57.249Z,1011.29
2017-03-11T01:48:57.281Z,1011.33
2017-03-11T01:49:57.340Z,1011.36
2017-03-11T01:50:57.345Z,1011.34
2017-03-11T01:51:57.390Z,1011.32
2017-03-11T01:52:57.410Z,1011.33
2017-03-11T01:53:57.442Z,1011.3
2017-03-11T01:54:57.477Z,1011.3
2017-03-11T01:55:57.508Z,1011.28
2017-03-11T01:56:57.539Z,1011.28
2017-03-11T01:57:57.574Z,1011.26
2017-03-11T01:58:57.607Z,1011.27
2017-03-11T01:59:57.638Z,1011.27
2017-03-11T02:00:57.670Z,1011.27
2017-03-11T02:01:57.718Z,1011.29
2017-03-11T02:02:57.734Z,1011.32
2017-03-11T02:03:57.782Z,1011.23
2017-03-11T02:04:57.797Z,1011.24
2017-03-11T02:05:57.831Z,1011.25
2017-03-11T02:06:57.861Z,1011.2
2017-03-11T02:07:57.904Z,1011.2
2017-03-11T02:08:57.927Z,1011.18
2017-03-11T02:09:57.976Z,1011.18
2017-03-11T02:10:57.990Z,1011.17
2017-03-11T02:11:58.043Z,1011.2
2017-03-11T02:12:58.054Z,1011.15
2017-03-11T02:13:58.091Z,1011.2
2017-03-11T02:14:58.121Z,1011.19
2017-03-11T02:15:58.167Z,1011.26
2017-03-11T02:16:58.185Z,1011.21
2017-03-11T02:17:58.236Z,1011.2
2017-03-11T02:18:58.248Z,1011.24
2017-03-11T02:19:58.301Z,1011.18
2017-03-11T02:20:58.312Z,1011.18
2017-03-11T02:21:58.370Z,1011.19
2017-03-11T02:22:58.377Z,1011.22
2017-03-11T02:23:58.432Z,1011.21
2017-03-11T02:24:58.440Z,1011.25
2017-03-11T02:25:58.497Z,1011.24
2017-03-11T02:26:58.503Z,1011.23
2017-03-11T02:27:58.554Z,1011.2
2017-03-11T02:28:58.568Z,1011.23
2017-03-11T02:29:58.631Z,1011.18
2017-03-11T02:30:58.657Z,1011.2
2017-03-11T02:31:58.676Z,1011.18
2017-03-11T02:32:58.697Z,1011.14
2017-03-11T02:33:58.747Z,1011.15
2017-03-11T02:34:58.758Z,1011.15
2017-03-11T02:35:58.820Z,1011.12
2017-03-11T02:36:58.824Z,1011.12
2017-03-11T02:37:58.879Z,1011.11
2017-03-11T02:38:58.888Z,1011.1
2017-03-11T02:39:58.942Z,1011.08
2017-03-11T02:40:58.953Z,1011.13
2017-03-11T02:41:59.004Z,1011.1
2017-03-11T02:42:59.019Z,1011.07
2017-03-11T02:43:59.051Z,1011.08
2017-03-11T02:44:59.081Z,1011.09
2017-03-11T02:45:59.113Z,1011.07
2017-03-11T02:46:59.146Z,1011.04
2017-03-11T02:47:59.206Z,1011.08
2017-03-11T02:48:59.211Z,1011.08
2017-03-11T02:49:59.255Z,1011.04
2017-03-11T02:50:59.274Z,1011.12
2017-03-11T02:51:59.304Z,1011.06
2017-03-11T02:52:59.337Z,1011.04
2017-03-11T02:53:59.372Z,1011.01
2017-03-11T02:54:59.401Z,1011.01
2017-03-11T02:55:59.451Z,1011.01
2017-03-11T02:56:59.464Z,1011.02
2017-03-11T02:57:59.527Z,1011.03
2017-03-11T02:58:59.529Z,1011.04
2017-03-11T02:59:59.582Z,1011.05
2017-03-11T03:00:59.594Z,1011.05
2017-03-11T03:01:59.637Z,1011.07
2017-03-11T03:02:59.659Z,1011.04
2017-03-11T03:03:59.688Z,1011.07
2017-03-11T03:04:59.743Z,1011.03
2017-03-11T03:05:59.782Z,1011.05
2017-03-11T03:06:59.787Z,1011.05
2017-03-11T03:07:59.816Z,1011
2017-03-11T03:08:59.850Z,1011.03
2017-03-11T03:09:59.916Z,1011.05
2017-03-11T03:10:59.914Z,1011.01
2017-03-11T03:11:59.962Z,1011.07
2017-03-11T03:12:59.976Z,1011.05
2017-03-11T03:14:00.030Z,1011.02
2017-03-11T03:15:00.038Z,1011.02
2017-03-11T03:16:00.096Z,1011.05
2017-03-11T03:17:00.104Z,1011.06
2017-03-11T03:18:00.154Z,1010.99
2017-03-11T03:19:00.168Z,1011.03
2017-03-11T03:20:00.219Z,1010.99
2017-03-11T03:21:00.233Z,1011.03
2017-03-11T03:22:00.284Z,1011.02
2017-03-11T03:23:00.298Z,1011.05
2017-03-11T03:24:00.350Z,1011.04
2017-03-11T03:25:00.359Z,1010.98
2017-03-11T03:26:00.413Z,1010.98
2017-03-11T03:27:00.423Z,1011
2017-03-11T03:28:00.488Z,1010.97
2017-03-11T03:29:00.488Z,1011.04
2017-03-11T03:30:00.551Z,1010.99
2017-03-11T03:31:00.567Z,1010.96
2017-03-11T03:32:00.607Z,1010.95
2017-03-11T03:33:00.650Z,1010.93
2017-03-11T03:34:00.671Z,1010.92
2017-03-11T03:35:00.679Z,1010.9
2017-03-11T03:36:00.724Z,1010.86
2017-03-11T03:37:00.745Z,1010.86
2017-03-11T03:38:00.796Z,1010.87
2017-03-11T03:39:00.807Z,1010.86
2017-03-11T03:40:00.839Z,1010.87
2017-03-11T03:41:00.869Z,1010.84
2017-03-11T03:42:00.903Z,1010.82
2017-03-11T03:43:00.933Z,1010.78
2017-03-11T03:44:00.964Z,1010.8
2017-03-11T03:45:00.996Z,1010.74
2017-03-11T03:46:01.045Z,1010.76
2017-03-11T03:47:01.061Z,1010.73
2017-03-11T03:48:01.115Z,1010.71
2017-03-11T03:49:01.122Z,1010.72
2017-03-11T03:50:01.174Z,1010.69
2017-03-11T03:51:01.188Z,1010.71
2017-03-11T03:52:01.220Z,1010.7
2017-03-11T03:53:01.252Z,1010.66
2017-03-11T03:54:01.302Z,1010.63
2017-03-11T03:55:01.314Z,1010.65
2017-03-11T03:56:01.368Z,1010.64
2017-03-11T03:57:01.377Z,1010.62
2017-03-11T03:58:01.433Z,1010.64
2017-03-11T03:59:01.442Z,1010.65
2017-03-11T04:00:01.474Z,1010.61
2017-03-11T04:01:01.507Z,1010.64
2017-03-11T04:02:01.540Z,1010.63
2017-03-11T04:03:01.603Z,1010.59
2017-03-11T04:04:01.608Z,1010.57
2017-03-11T04:05:01.632Z,1010.6
2017-03-11T04:06:01.685Z,1010.62
2017-03-11T04:07:01.696Z,1010.62
2017-03-11T04:08:01.750Z,1010.6
2017-03-11T04:09:01.760Z,1010.61
2017-03-11T04:10:01.817Z,1010.6
2017-03-11T04:11:01.825Z,1010.62
2017-03-11T04:12:01.866Z,1010.61
2017-03-11T04:13:01.890Z,1010.64
2017-03-11T04:14:01.920Z,1010.65
2017-03-11T04:15:01.955Z,1010.63
2017-03-11T04:16:02.013Z,1010.67
2017-03-11T04:17:02.017Z,1010.65
2017-03-11T04:18:02.072Z,1010.6
2017-03-11T04:19:02.080Z,1010.61
2017-03-11T04:20:02.157Z,1010.62
2017-03-11T04:21:02.142Z,1010.61
2017-03-11T04:22:02.196Z,1010.63
2017-03-11T04:23:02.205Z,1010.61
2017-03-11T04:24:02.265Z,1010.61
2017-03-11T04:25:02.271Z,1010.51
2017-03-11T04:26:02.322Z,1010.57
2017-03-11T04:27:02.333Z,1010.59
2017-03-11T04:28:02.370Z,1010.61
2017-03-11T04:29:02.397Z,1010.64
2017-03-11T04:30:02.436Z,1010.67
2017-03-11T04:31:02.461Z,1010.67
2017-03-11T04:32:02.520Z,1010.68
2017-03-11T04:33:02.546Z,1010.65
2017-03-11T04:34:02.575Z,1010.61
2017-03-11T04:35:02.589Z,1010.64
2017-03-11T04:36:02.622Z,1010.61
2017-03-11T04:37:02.654Z,1010.64
2017-03-11T04:38:02.686Z,1010.63
2017-03-11T04:39:02.717Z,1010.64
2017-03-11T04:40:02.746Z,1010.59
2017-03-11T04:41:02.778Z,1010.62
2017-03-11T04:42:02.813Z,1010.65
2017-03-11T04:43:02.841Z,1010.59
2017-03-11T04:44:02.896Z,1010.63
2017-03-11T04:45:02.908Z,1010.64
2017-03-11T04:46:02.964Z,1010.64
2017-03-11T04:47:02.968Z,1010.63
2017-03-11T04:48:03.007Z,1010.68
2017-03-11T04:49:03.033Z,1010.65
2017-03-11T04:50:03.063Z,1010.67
2017-03-11T04:51:03.097Z,1010.68
2017-03-11T04:52:03.130Z,1010.69
2017-03-11T04:53:03.186Z,1010.68
2017-03-11T04:54:03.192Z,1010.69
2017-03-11T04:55:03.222Z,1010.66
2017-03-11T04:56:03.258Z,1010.69
2017-03-11T04:57:03.289Z,1010.69
2017-03-11T04:58:03.325Z,1010.73
2017-03-11T04:59:03.356Z,1010.73
2017-03-11T05:00:03.384Z,1010.67
2017-03-11T05:01:03.414Z,1010.71
2017-03-11T05:02:03.445Z,1010.73
2017-03-11T05:03:03.477Z,1010.71
2017-03-11T05:04:03.548Z,1010.7
2017-03-11T05:05:03.541Z,1010.66
2017-03-11T05:06:03.597Z,1010.68
2017-03-11T05:07:03.607Z,1010.68
2017-03-11T05:08:03.638Z,1010.61
2017-03-11T05:09:03.670Z,1010.64
2017-03-11T05:10:03.714Z,1010.67
2017-03-11T05:11:03.734Z,1010.64
2017-03-11T05:12:03.769Z,1010.67
2017-03-11T05:13:03.795Z,1010.66
2017-03-11T05:14:03.831Z,1010.67
2017-03-11T05:15:03.861Z,1010.65
2017-03-11T05:16:03.895Z,1010.66
2017-03-11T05:17:03.924Z,1010.74
2017-03-11T05:18:03.954Z,1010.65
2017-03-11T05:19:03.988Z,1010.71
2017-03-11T05:20:04.019Z,1010.7
2017-03-11T05:21:04.049Z,1010.69
2017-03-11T05:22:04.084Z,1010.73
2017-03-11T05:23:04.112Z,1010.72
2017-03-11T05:24:04.147Z,1010.69
2017-03-11T05:25:04.177Z,1010.74
2017-03-11T05:26:04.214Z,1010.74
2017-03-11T05:27:04.238Z,1010.75
2017-03-11T05:28:04.274Z,1010.73
2017-03-11T05:29:04.306Z,1010.73
2017-03-11T05:30:04.337Z,1010.71
2017-03-11T05:31:04.368Z,1010.71
2017-03-11T05:32:04.400Z,1010.72
2017-03-11T05:33:04.429Z,1010.75
2017-03-11T05:34:04.463Z,1010.73
2017-03-11T05:35:04.495Z,1010.73
2017-03-11T05:36:04.525Z,1010.73
2017-03-11T05:37:04.559Z,1010.72
2017-03-11T05:38:04.587Z,1010.75
2017-03-11T05:39:04.622Z,1010.73
2017-03-11T05:40:04.662Z,1010.71
2017-03-11T05:41:04.682Z,1010.7
2017-03-11T05:42:04.714Z,1010.65
2017-03-11T05:43:04.747Z,1010.62
2017-03-11T05:44:04.800Z,1010.64
2017-03-11T05:45:04.811Z,1010.66
2017-03-11T05:46:04.843Z,1010.71
2017-03-11T05:47:04.901Z,1010.72
2017-03-11T05:48:04.910Z,1010.7
2017-03-11T05:49:04.938Z,1010.67
2017-03-11T05:50:04.994Z,1010.67
2017-03-11T05:51:05.000Z,1010.66
2017-03-11T05:52:05.054Z,1010.66
2017-03-11T05:53:05.066Z,1010.71
2017-03-11T05:54:05.095Z,1010.75
2017-03-11T05:55:05.130Z,1010.73
2017-03-11T05:56:05.160Z,1010.76
2017-03-11T05:57:05.193Z,1010.77
2017-03-11T05:58:05.244Z,1010.75
2017-03-11T05:59:05.256Z,1010.74
2017-03-11T06:00:05.314Z,1010.73
2017-03-11T06:01:05.320Z,1010.74
2017-03-11T06:02:05.372Z,1010.79
2017-03-11T06:03:05.384Z,1010.75
2017-03-11T06:04:05.438Z,1010.77
2017-03-11T06:05:05.448Z,1010.79
2017-03-11T06:06:05.500Z,1010.81
2017-03-11T06:07:05.510Z,1010.8
2017-03-11T06:08:05.545Z,1010.84
2017-03-11T06:09:05.578Z,1010.84
2017-03-11T06:10:05.607Z,1010.87
2017-03-11T06:11:05.638Z,1010.87
2017-03-11T06:12:05.673Z,1010.86
2017-03-11T06:13:05.704Z,1010.82
2017-03-11T06:14:05.769Z,1010.85
2017-03-11T06:15:05.769Z,1010.86
2017-03-11T06:16:05.801Z,1010.85
2017-03-11T06:17:05.831Z,1010.84
2017-03-11T06:18:05.865Z,1010.87
2017-03-11T06:19:05.899Z,1010.85
2017-03-11T06:20:05.946Z,1010.82
2017-03-11T06:21:05.962Z,1010.78
2017-03-11T06:22:06.004Z,1010.79
2017-03-11T06:23:06.026Z,1010.76
2017-03-11T06:24:06.059Z,1010.75
2017-03-11T06:25:06.088Z,1010.72
2017-03-11T06:26:06.120Z,1010.72
2017-03-11T06:27:06.152Z,1010.71
2017-03-11T06:28:06.203Z,1010.69
2017-03-11T06:29:06.217Z,1010.72
2017-03-11T06:30:06.267Z,1010.72
2017-03-11T06:31:06.284Z,1010.79
2017-03-11T06:32:06.315Z,1010.84
2017-03-11T06:33:06.349Z,1010.88
2017-03-11T06:34:06.405Z,1010.91
2017-03-11T06:35:06.412Z,1010.9
2017-03-11T06:36:06.445Z,1010.89
2017-03-11T06:37:06.476Z,1010.86
2017-03-11T06:38:06.532Z,1010.8
2017-03-11T06:39:06.541Z,1010.8
2017-03-11T06:40:06.579Z,1010.79
2017-03-11T06:41:06.609Z,1010.81
2017-03-11T06:42:06.668Z,1010.82
2017-03-11T06:43:06.672Z,1010.85
2017-03-11T06:44:06.735Z,1010.86
2017-03-11T06:45:06.740Z,1010.88
2017-03-11T06:46:06.794Z,1010.89
2017-03-11T06:47:06.805Z,1010.89
2017-03-11T06:48:06.851Z,1010.87
2017-03-11T06:49:06.870Z,1010.83
2017-03-11T06:50:06.923Z,1010.87
2017-03-11T06:51:06.937Z,1010.84
2017-03-11T06:52:06.993Z,1010.81
2017-03-11T06:53:07.007Z,1010.86
2017-03-11T06:54:07.040Z,1010.81
2017-03-11T06:55:07.074Z,1010.88
2017-03-11T06:56:07.111Z,1010.87
2017-03-11T06:57:07.139Z,1010.87
2017-03-11T06:58:07.191Z,1010.93
2017-03-11T06:59:07.205Z,1010.98
2017-03-11T07:00:07.249Z,1010.96
2017-03-11T07:01:07.276Z,1010.93
2017-03-11T07:02:07.331Z,1010.87
2017-03-11T07:03:07.341Z,1010.82
2017-03-11T07:04:07.377Z,1010.86
2017-03-11T07:05:07.407Z,1010.91
2017-03-11T07:06:07.442Z,1010.9
2017-03-11T07:07:07.474Z,1010.86
2017-03-11T07:08:07.509Z,1010.74
2017-03-11T07:09:07.541Z,1010.79
2017-03-11T07:10:07.603Z,1010.72
2017-03-11T07:11:07.608Z,1010.78
2017-03-11T07:12:07.658Z,1010.86
2017-03-11T07:13:07.677Z,1010.83
2017-03-11T07:14:07.713Z,1010.83
2017-03-11T07:15:07.746Z,1010.87
2017-03-11T07:16:07.796Z,1010.82
2017-03-11T07:17:07.811Z,1010.84
2017-03-11T07:18:07.856Z,1010.86
2017-03-11T07:19:07.879Z,1010.84
2017-03-11T07:20:07.918Z,1010.83
2017-03-11T07:21:07.947Z,1010.81
2017-03-11T07:22:07.995Z,1010.79
2017-03-11T07:23:08.014Z,1010.77
2017-03-11T07:24:08.063Z,1010.74
2017-03-11T07:25:08.080Z,1010.73
2017-03-11T07:26:08.135Z,1010.72
2017-03-11T07:27:08.149Z,1010.76
2017-03-11T07:28:08.223Z,1010.81
2017-03-11T07:29:08.214Z,1010.79
2017-03-11T07:30:08.271Z,1010.82
2017-03-11T07:31:08.280Z,1010.83
2017-03-11T07:32:08.340Z,1010.82
2017-03-11T07:33:08.350Z,1010.85
2017-03-11T07:34:08.402Z,1010.8
2017-03-11T07:35:08.417Z,1010.83
2017-03-11T07:36:08.471Z,1010.82
2017-03-11T07:37:08.485Z,1010.82
2017-03-11T07:38:08.535Z,1010.82
2017-03-11T07:39:08.552Z,1010.85
2017-03-11T07:40:08.608Z,1010.86
2017-03-11T07:41:08.621Z,1010.84
2017-03-11T07:42:08.680Z,1010.86
2017-03-11T07:43:08.689Z,1010.87
2017-03-11T07:44:08.726Z,1010.89
2017-03-11T07:45:08.757Z,1010.87
2017-03-11T07:46:08.808Z,1010.88
2017-03-11T07:47:08.824Z,1010.84
2017-03-11T07:48:08.881Z,1010.83
2017-03-11T07:49:08.892Z,1010.85
2017-03-11T07:50:08.950Z,1010.84
2017-03-11T07:51:08.962Z,1010.84
2017-03-11T07:52:09.014Z,1010.82
2017-03-11T07:53:09.033Z,1010.78
2017-03-11T07:54:09.097Z,1010.84
2017-03-11T07:55:09.102Z,1010.81
2017-03-11T07:56:09.138Z,1010.82
2017-03-11T07:57:09.170Z,1010.81
2017-03-11T07:58:09.225Z,1010.81
2017-03-11T07:59:09.238Z,1010.83
2017-03-11T08:00:09.295Z,1010.78
2017-03-11T08:01:09.307Z,1010.77
2017-03-11T08:02:09.367Z,1010.72
2017-03-11T08:03:09.380Z,1010.73
2017-03-11T08:04:09.433Z,1010.7
2017-03-11T08:05:09.450Z,1010.71
2017-03-11T08:06:09.505Z,1010.67
2017-03-11T08:07:09.521Z,1010.69
2017-03-11T08:08:09.553Z,1010.68
2017-03-11T08:09:09.590Z,1010.66
2017-03-11T08:10:09.625Z,1010.64
2017-03-11T08:11:09.662Z,1010.64
2017-03-11T08:12:09.699Z,1010.64
2017-03-11T08:13:09.731Z,1010.63
2017-03-11T08:14:09.770Z,1010.59
2017-03-11T08:15:09.805Z,1010.57
2017-03-11T08:16:09.837Z,1010.58
2017-03-11T08:17:09.876Z,1010.59
2017-03-11T08:18:09.910Z,1010.6
2017-03-11T08:19:09.948Z,1010.56
2017-03-11T08:20:09.984Z,1010.55
2017-03-11T08:21:10.018Z,1010.58
2017-03-11T08:22:10.056Z,1010.56
2017-03-11T08:23:10.091Z,1010.57
2017-03-11T08:24:10.128Z,1010.56
2017-03-11T08:25:10.163Z,1010.53
2017-03-11T08:26:10.201Z,1010.5
2017-03-11T08:27:10.235Z,1010.51
2017-03-11T08:28:10.274Z,1010.47
2017-03-11T08:29:10.308Z,1010.45
2017-03-11T08:30:10.346Z,1010.44
2017-03-11T08:31:10.381Z,1010.49
2017-03-11T08:32:10.418Z,1010.48
2017-03-11T08:33:10.455Z,1010.49
2017-03-11T08:34:10.508Z,1010.47
2017-03-11T08:35:10.528Z,1010.49
2017-03-11T08:36:10.573Z,1010.45
2017-03-11T08:37:10.603Z,1010.44
2017-03-11T08:38:10.643Z,1010.47
2017-03-11T08:39:10.676Z,1010.49
2017-03-11T08:40:10.713Z,1010.43
2017-03-11T08:41:10.749Z,1010.44
2017-03-11T08:42:10.787Z,1010.45
2017-03-11T08:43:10.825Z,1010.41
2017-03-11T08:44:10.858Z,1010.38
2017-03-11T08:45:10.896Z,1010.36
2017-03-11T08:46:10.951Z,1010.35
2017-03-11T08:47:10.971Z,1010.32
2017-03-11T08:48:11.029Z,1010.35
2017-03-11T08:49:11.045Z,1010.32
2017-03-11T08:50:11.084Z,1010.32
2017-03-11T08:51:11.119Z,1010.36
2017-03-11T08:52:11.175Z,1010.37
2017-03-11T08:53:11.192Z,1010.35
2017-03-11T08:54:11.232Z,1010.33
2017-03-11T08:55:11.266Z,1010.33
2017-03-11T08:56:11.303Z,1010.35
2017-03-11T08:57:11.343Z,1010.32
2017-03-11T08:58:11.401Z,1010.34
2017-03-11T08:59:11.415Z,1010.34
2017-03-11T09:00:11.455Z,1010.35
2017-03-11T09:01:11.492Z,1010.41
2017-03-11T09:02:11.527Z,1010.4
2017-03-11T09:03:11.564Z,1010.41
2017-03-11T09:04:11.622Z,1010.39
2017-03-11T09:05:11.641Z,1010.35
2017-03-11T09:06:11.696Z,1010.28
2017-03-11T09:07:11.716Z,1010.29
2017-03-11T09:08:11.770Z,1010.31
2017-03-11T09:09:11.792Z,1010.3
2017-03-11T09:10:11.831Z,1010.33
2017-03-11T09:11:11.862Z,1010.31
2017-03-11T09:12:11.903Z,1010.37
2017-03-11T09:13:11.941Z,1010.36
2017-03-11T09:14:11.979Z,1010.41
2017-03-11T09:15:12.016Z,1010.43
2017-03-11T09:16:12.050Z,1010.43
2017-03-11T09:17:12.089Z,1010.46
2017-03-11T09:18:12.127Z,1010.46
2017-03-11T09:19:12.163Z,1010.43
2017-03-11T09:20:12.204Z,1010.39
2017-03-11T09:21:12.237Z,1010.43
2017-03-11T09:22:12.277Z,1010.36
2017-03-11T09:23:12.312Z,1010.39
2017-03-11T09:24:12.349Z,1010.33
2017-03-11T09:25:12.389Z,1010.31
2017-03-11T09:26:12.426Z,1010.37
2017-03-11T09:27:12.461Z,1010.35
2017-03-11T09:28:12.497Z,1010.37
2017-03-11T09:29:12.538Z,1010.4
2017-03-11T09:30:12.574Z,1010.38
2017-03-11T09:31:12.612Z,1010.4
2017-03-11T09:32:12.648Z,1010.35
2017-03-11T09:33:12.684Z,1010.42
2017-03-11T09:34:12.723Z,1010.42
2017-03-11T09:35:12.759Z,1010.46
2017-03-11T09:36:12.795Z,1010.45
2017-03-11T09:37:12.833Z,1010.45
2017-03-11T09:38:12.872Z,1010.45
2017-03-11T09:39:12.908Z,1010.44
2017-03-11T09:40:12.943Z,1010.36
2017-03-11T09:41:12.981Z,1010.36
2017-03-11T09:42:13.020Z,1010.36
2017-03-11T09:43:13.054Z,1010.34
2017-03-11T09:44:13.095Z,1010.35
2017-03-11T09:45:13.132Z,1010.38
2017-03-11T09:46:13.187Z,1010.36
2017-03-11T09:47:13.205Z,1010.34
2017-03-11T09:48:13.267Z,1010.4
2017-03-11T09:49:13.280Z,1010.41
2017-03-11T09:50:13.330Z,1010.4
2017-03-11T09:51:13.354Z,1010.38
2017-03-11T09:52:13.406Z,1010.37
2017-03-11T09:53:13.429Z,1010.37
2017-03-11T09:54:13.463Z,1010.36
2017-03-11T09:55:13.500Z,1010.33
2017-03-11T09:56:13.538Z,1010.33
2017-03-11T09:57:13.576Z,1010.36
2017-03-11T09:58:13.615Z,1010.33
2017-03-11T09:59:13.652Z,1010.3
2017-03-11T10:00:13.688Z,1010.35
2017-03-11T10:01:13.725Z,1010.34
2017-03-11T10:02:13.792Z,1010.36
2017-03-11T10:03:13.801Z,1010.33
2017-03-11T10:04:13.841Z,1010.32
2017-03-11T10:05:13.878Z,1010.29
2017-03-11T10:06:13.913Z,1010.32
2017-03-11T10:07:13.955Z,1010.29
2017-03-11T10:08:13.989Z,1010.26
2017-03-11T10:09:14.026Z,1010.29
2017-03-11T10:10:14.067Z,1010.33
2017-03-11T10:11:14.106Z,1010.32
2017-03-11T10:12:14.140Z,1010.37
2017-03-11T10:13:14.179Z,1010.34
2017-03-11T10:14:14.244Z,1010.39
2017-03-11T10:15:14.260Z,1010.4
2017-03-11T10:16:14.321Z,1010.43
2017-03-11T10:17:14.333Z,1010.39
2017-03-11T10:18:14.374Z,1010.39
2017-03-11T10:19:14.417Z,1010.38
2017-03-11T10:20:14.457Z,1010.42
2017-03-11T10:21:14.488Z,1010.39
2017-03-11T10:22:14.548Z,1010.37
2017-03-11T10:23:14.567Z,1010.32
2017-03-11T10:24:14.627Z,1010.33
2017-03-11T10:25:14.644Z,1010.35
2017-03-11T10:26:14.706Z,1010.32
2017-03-11T10:27:14.723Z,1010.33
2017-03-11T10:28:14.763Z,1010.31
2017-03-11T10:29:14.805Z,1010.29
2017-03-11T10:30:14.844Z,1010.28
2017-03-11T10:31:14.885Z,1010.32
2017-03-11T10:32:14.925Z,1010.29
2017-03-11T10:33:14.966Z,1010.26
2017-03-11T10:34:15.007Z,1010.28
2017-03-11T10:35:15.048Z,1010.26
2017-03-11T10:36:15.089Z,1010.26
2017-03-11T10:37:15.130Z,1010.3
2017-03-11T10:38:15.173Z,1010.29
2017-03-11T10:39:15.214Z,1010.3
2017-03-11T10:40:15.258Z,1010.22
2017-03-11T10:41:15.302Z,1010.23
2017-03-11T10:42:15.343Z,1010.24
2017-03-11T10:43:15.386Z,1010.2
2017-03-11T10:44:15.429Z,1010.18
2017-03-11T10:45:15.471Z,1010.18
2017-03-11T10:46:15.525Z,1010.22
2017-03-11T10:47:15.560Z,1010.19
2017-03-11T10:48:15.611Z,1010.17
2017-03-11T10:49:15.673Z,1010.18
2017-03-11T10:50:15.715Z,1010.19
2017-03-11T10:51:15.737Z,1010.14
2017-03-11T10:52:15.781Z,1010.18
2017-03-11T10:53:15.829Z,1010.2
2017-03-11T10:54:15.872Z,1010.13
2017-03-11T10:55:15.918Z,1010.12
2017-03-11T10:56:15.961Z,1010.14
2017-03-11T10:57:16.006Z,1010.16
2017-03-11T10:58:16.050Z,1010.14
2017-03-11T10:59:16.093Z,1010.15
2017-03-11T11:00:16.138Z,1010.14
2017-03-11T11:01:16.180Z,1010.12
2017-03-11T11:02:16.225Z,1010.09
2017-03-11T11:03:16.269Z,1010.1
2017-03-11T11:04:16.310Z,1010.13
2017-03-11T11:05:16.354Z,1010.11
2017-03-11T11:06:16.397Z,1010.12
2017-03-11T11:07:16.440Z,1010.1
2017-03-11T11:08:16.481Z,1010.09
2017-03-11T11:09:16.524Z,1010.08
2017-03-11T11:10:16.566Z,1010.09
2017-03-11T11:11:16.609Z,1010.08
2017-03-11T11:12:16.648Z,1010.05
2017-03-11T11:13:16.692Z,1010.08
2017-03-11T11:14:16.732Z,1010.09
2017-03-11T11:15:16.776Z,1010.04
2017-03-11T11:16:16.815Z,1010.04
2017-03-11T11:17:16.857Z,1010.03
2017-03-11T11:18:16.896Z,1009.97
2017-03-11T11:19:16.939Z,1010
2017-03-11T11:20:16.978Z,1010.05
2017-03-11T11:21:17.020Z,1010.02
2017-03-11T11:22:17.059Z,1010.05
2017-03-11T11:23:17.099Z,1010.04
2017-03-11T11:24:17.141Z,1010.03
2017-03-11T11:25:17.180Z,1010
2017-03-11T11:26:17.219Z,1009.97
2017-03-11T11:27:17.260Z,1009.97
2017-03-11T11:28:17.301Z,1009.95
2017-03-11T11:29:17.340Z,1009.94
2017-03-11T11:30:17.382Z,1009.87
2017-03-11T11:31:17.421Z,1009.9
2017-03-11T11:32:17.458Z,1009.89
2017-03-11T11:33:17.500Z,1009.85
2017-03-11T11:34:17.538Z,1009.84
2017-03-11T11:35:17.579Z,1009.81
2017-03-11T11:36:17.622Z,1009.82
2017-03-11T11:37:17.657Z,1009.81
2017-03-11T11:38:17.696Z,1009.79
2017-03-11T11:39:17.737Z,1009.77
2017-03-11T11:40:17.775Z,1009.79
2017-03-11T11:41:17.814Z,1009.76
2017-03-11T11:42:17.855Z,1009.82
2017-03-11T11:43:17.891Z,1009.77
2017-03-11T11:44:17.929Z,1009.77
2017-03-11T11:45:17.970Z,1009.81
2017-03-11T11:46:18.011Z,1009.81
2017-03-11T11:47:18.046Z,1009.81
2017-03-11T11:48:18.087Z,1009.78
2017-03-11T11:49:18.124Z,1009.75
2017-03-11T11:50:18.165Z,1009.77
2017-03-11T11:51:18.202Z,1009.73
2017-03-11T11:52:18.241Z,1009.74
2017-03-11T11:53:18.279Z,1009.71
2017-03-11T11:54:18.318Z,1009.68
2017-03-11T11:55:18.359Z,1009.68
2017-03-11T11:56:18.395Z,1009.66
2017-03-11T11:57:18.437Z,1009.63
2017-03-11T11:58:18.472Z,1009.59
2017-03-11T11:59:18.512Z,1009.58
2017-03-11T12:00:18.552Z,1009.53
2017-03-11T12:01:18.588Z,1009.5
2017-03-11T12:02:18.628Z,1009.58
2017-03-11T12:03:18.665Z,1009.62
2017-03-11T12:04:18.703Z,1009.58
2017-03-11T12:05:18.741Z,1009.55
2017-03-11T12:06:18.779Z,1009.54
2017-03-11T12:07:18.817Z,1009.55
2017-03-11T12:08:18.860Z,1009.52